Time;durP1;ratioP1;P1;durP2;ratioP2;P2;SDS_P1;SDS_P2;PMS_P1;PMS_P2;Temp;Humidity;BMP_temperature;BMP_pressure;BME280_temperature;BME280_humidity;BME280_pressure;Samples;Min_cycle;Max_cycle;Signal;HPM_P1;HPM_P2
2022/06/10 00:01:53;;;;;;;3.80;3.28;;;;;;;19.17;70.31;93871.59;4172786;28;20049;-52
2022/06/10 00:03:55;;;;;;;5.13;3.63;;;;;;;19.28;70.19;93869.97;4175458;28;20052;-49
2022/06/10 00:06:04;;;;;;;3.63;3.17;;;;;;;19.38;69.83;93868.31;4166426;28;20187;-52
2022/06/10 00:08:09;;;;;;;5.32;3.85;;;;;;;19.50;69.78;93875.47;4171412;28;20238;-52
2022/06/10 00:10:15;;;;;;;4.65;3.40;;;;;;;19.56;69.60;93869.22;4165882;28;20441;-49
2022/06/10 00:12:16;;;;;;;5.10;3.58;;;;;;;19.60;69.30;93868.50;4164661;28;20057;-52
2022/06/10 00:14:18;;;;;;;6.70;3.88;;;;;;;19.69;69.26;93860.97;4172040;28;20053;-52
2022/06/10 00:16:20;;;;;;;5.90;4.72;;;;;;;19.71;68.59;93863.44;4156800;28;20061;-48
2022/06/10 00:18:25;;;;;;;7.68;4.82;;;;;;;19.68;68.30;93866.50;4158657;28;20088;-52
2022/06/10 00:20:29;;;;;;;5.70;4.15;;;;;;;19.67;68.82;93870.22;4167020;28;20106;-48
2022/06/10 00:22:31;;;;;;;7.65;3.88;;;;;;;19.69;69.14;93871.59;4167762;28;20046;-51
2022/06/10 00:24:33;;;;;;;7.75;3.92;;;;;;;19.72;68.87;93873.81;4172320;28;20115;-49
2022/06/10 00:26:35;;;;;;;4.95;4.03;;;;;;;19.71;68.43;93866.09;4174938;28;20056;-55
2022/06/10 00:28:36;;;;;;;4.88;4.32;;;;;;;19.72;68.33;93860.50;4167020;28;20111;-53
2022/06/10 00:30:38;;;;;;;5.78;3.90;;;;;;;19.73;67.94;93858.69;4156867;28;20061;-53
2022/06/10 00:32:40;;;;;;;5.13;4.35;;;;;;;19.75;68.23;93856.59;4158811;28;20128;-49
2022/06/10 00:34:42;;;;;;;5.57;4.30;;;;;;;19.79;68.14;93855.09;4158369;28;20049;-49
2022/06/10 00:36:44;;;;;;;6.15;4.30;;;;;;;19.84;67.95;93853.31;4167358;28;20053;-54
2022/06/10 00:38:48;;;;;;;6.55;4.25;;;;;;;19.87;68.09;93854.69;4175624;28;20264;-53
2022/06/10 00:40:55;;;;;;;5.00;4.35;;;;;;;19.86;68.08;93847.78;4171616;28;20362;-53
2022/06/10 00:42:57;;;;;;;6.93;4.38;;;;;;;19.85;67.85;93851.47;4158203;28;20115;-53
2022/06/10 00:44:59;;;;;;;5.47;4.28;;;;;;;19.82;67.91;93850.09;4157431;28;20816;-54
2022/06/10 00:47:03;;;;;;;4.82;3.97;;;;;;;19.81;68.00;93839.69;4168906;28;20053;-54
2022/06/10 00:49:08;;;;;;;6.53;3.75;;;;;;;19.81;67.71;93848.50;4159116;28;20049;-55
2022/06/10 00:51:34;;;;;;;7.28;3.97;;;;;;;19.80;67.19;93840.75;4171810;28;20111;-53
2022/06/10 00:53:36;;;;;;;5.47;3.72;;;;;;;19.75;67.34;93848.63;4170803;28;20111;-49
2022/06/10 00:55:38;;;;;;;4.70;3.70;;;;;;;19.73;67.43;93848.06;4163131;28;20112;-51
2022/06/10 00:57:43;;;;;;;5.57;3.60;;;;;;;19.68;66.76;93840.78;4167434;28;20095;-53
2022/06/10 00:59:57;;;;;;;6.38;3.63;;;;;;;19.61;67.47;93846.19;4157923;28;20602;-51
2022/06/10 01:02:03;;;;;;;;;;;;;;;19.59;67.66;93840.31;4161046;28;20159;-51
2022/06/10 01:04:06;;;;;;;4.38;3.45;;;;;;;19.59;67.42;93842.97;4166858;28;20007;-52
2022/06/10 01:06:08;;;;;;;8.77;4.15;;;;;;;19.63;67.63;93841.44;4161038;28;20065;-54
2022/06/10 01:08:14;;;;;;;6.38;3.38;;;;;;;19.69;67.60;93841.56;4163344;28;20041;-52
2022/06/10 01:10:17;;;;;;;5.93;3.70;;;;;;;19.69;67.25;93846.88;4165092;28;20299;-54
2022/06/10 01:12:24;;;;;;;;;;;;;;;19.70;67.17;93843.19;4173836;28;20044;-52
2022/06/10 01:14:44;;;;;;;4.68;3.60;;;;;;;19.75;67.21;93845.97;4176827;28;20278;-52
2022/06/10 01:16:47;;;;;;;8.32;3.92;;;;;;;19.76;67.10;93845.72;4174700;28;20494;-51
2022/06/10 01:19:01;;;;;;;4.45;3.65;;;;;;;19.77;66.94;93842.03;4169691;28;20060;-53
2022/06/10 01:21:26;;;;;;;5.53;3.40;;;;;;;19.76;67.07;93844.91;4165221;28;20076;-53
2022/06/10 01:24:06;;;;;;;9.95;4.55;;;;;;;19.74;67.25;93844.34;4171266;28;20049;-53
2022/06/10 01:26:32;;;;;;;5.68;3.45;;;;;;;19.73;67.42;93851.53;4170054;28;20472;-48
2022/06/10 01:28:58;;;;;;;7.70;4.20;;;;;;;19.72;67.44;93849.88;4165212;28;20044;-52
2022/06/10 01:31:02;;;;;;;6.60;4.07;;;;;;;19.71;67.54;93845.63;4173770;28;20127;-54
2022/06/10 01:33:25;;;;;;;6.40;4.90;;;;;;;19.73;67.43;93845.41;4163603;28;21255;-49
2022/06/10 01:35:30;;;;;;;8.52;4.72;;;;;;;19.71;67.40;93847.50;4160924;28;20506;-52
2022/06/10 01:37:33;;;;;;;8.48;4.95;;;;;;;19.69;67.32;93846.88;4164645;28;20080;-53
2022/06/10 01:39:53;;;;;;;;;;;;;;;19.64;67.64;93844.94;4160392;28;20115;-52
2022/06/10 01:42:25;;;;;;;4.70;4.22;;;;;;;19.63;67.94;93851.28;4172677;28;20361;-48
2022/06/10 01:44:40;;;;;;;8.75;4.18;;;;;;;19.64;67.92;93850.25;4161052;28;20053;-53
2022/06/10 01:46:58;;;;;;;10.30;4.00;;;;;;;19.68;67.66;93853.22;4158693;28;20057;-52
2022/06/10 01:49:17;;;;;;;5.32;4.55;;;;;;;19.72;67.55;93857.06;4161203;28;20466;-53
2022/06/10 01:51:26;;;;;;;5.55;4.55;;;;;;;19.71;67.60;93853.59;4160509;28;20057;-49
2022/06/10 01:53:35;;;;;;;9.05;4.38;;;;;;;19.70;67.62;93854.63;4169521;28;20060;-47
2022/06/10 01:55:51;;;;;;;5.45;3.90;;;;;;;19.75;67.55;93852.09;4173247;28;20097;-48
2022/06/10 01:58:00;;;;;;;7.70;4.00;;;;;;;19.77;67.85;93854.53;4170587;28;20136;-50
2022/06/10 02:00:08;;;;;;;6.45;3.90;;;;;;;19.79;67.54;93863.88;4169365;28;20102;-49
2022/06/10 02:02:16;;;;;;;4.75;3.95;;;;;;;19.85;68.01;93856.78;4164366;28;20053;-51
2022/06/10 02:04:22;;;;;;;5.40;4.05;;;;;;;19.87;67.98;93856.56;4164439;28;20053;-53
2022/06/10 02:06:30;;;;;;;6.18;4.20;;;;;;;19.84;67.88;93850.66;4161808;28;20041;-52
2022/06/10 02:08:37;;;;;;;11.13;4.30;;;;;;;19.88;67.61;93861.63;4162795;28;20099;-52
2022/06/10 02:11:14;;;;;;;6.10;4.97;;;;;;;19.84;67.53;93855.97;4173458;28;20142;-51
2022/06/10 02:13:23;;;;;;;7.10;4.90;;;;;;;19.78;67.40;93859.56;4160613;28;20052;-49
2022/06/10 02:15:38;;;;;;;5.72;4.55;;;;;;;19.74;67.65;93861.09;4170904;28;20045;-52
2022/06/10 02:17:45;;;;;;;5.38;4.15;;;;;;;19.70;67.79;93861.81;4160301;28;20050;-49
2022/06/10 02:19:51;;;;;;;5.78;4.35;;;;;;;19.66;68.22;93864.13;4171010;28;20053;-50
2022/06/10 02:22:01;;;;;;;6.60;4.35;;;;;;;19.68;68.20;93866.50;4172069;28;20591;-56
2022/06/10 02:24:10;;;;;;;4.93;3.72;;;;;;;19.69;68.05;93862.81;4160479;28;20497;-54
2022/06/10 02:26:12;;;;;;;7.03;4.35;;;;;;;19.68;68.07;93867.34;4159005;28;20131;-53
2022/06/10 02:28:18;;;;;;;8.20;4.57;;;;;;;19.71;68.20;93860.78;4172159;28;20299;-51
2022/06/10 02:30:23;;;;;;;5.10;4.53;;;;;;;19.75;68.38;93867.22;4159448;28;20057;-50
2022/06/10 02:32:26;;;;;;;5.38;4.15;;;;;;;19.79;68.29;93871.03;4167075;28;20103;-51
2022/06/10 02:34:28;;;;;;;6.45;4.75;;;;;;;19.80;67.99;93870.78;4159179;28;20159;-52
2022/06/10 02:36:53;;;;;;;5.80;4.57;;;;;;;19.84;68.17;93866.59;4168820;28;20402;-51
2022/06/10 02:39:10;;;;;;;6.45;4.13;;;;;;;19.88;68.12;93866.16;4162326;28;20116;-50
2022/06/10 02:41:21;;;;;;;5.00;4.30;;;;;;;19.88;68.08;93868.81;4175553;28;20049;-53
2022/06/10 02:43:25;;;;;;;7.28;4.72;;;;;;;19.87;68.30;93875.94;4175960;28;20099;-51
2022/06/10 02:45:36;;;;;;;5.53;4.55;;;;;;;19.86;68.43;93873.56;4160875;28;20172;-53
2022/06/10 02:47:51;;;;;;;7.55;4.97;;;;;;;19.84;68.45;93879.91;4160426;28;20041;-50
2022/06/10 02:49:53;;;;;;;6.60;4.97;;;;;;;19.84;68.57;93879.91;4159461;28;20135;-52
2022/06/10 02:51:55;;;;;;;7.53;5.05;;;;;;;19.87;68.33;93881.28;4171213;28;20083;-52
2022/06/10 02:53:57;;;;;;;6.90;4.60;;;;;;;19.88;68.49;93880.25;4175547;28;20049;-52
2022/06/10 02:55:59;;;;;;;7.65;4.95;;;;;;;19.90;68.48;93878.16;4160419;28;20079;-50
2022/06/10 03:02:56;;;;;;;8.45;5.32;;;;;;;19.85;68.40;93883.34;4165701;28;20505;-51
2022/06/10 03:05:26;;;;;;;6.47;5.38;;;;;;;19.84;68.50;93877.25;4157402;28;20061;-50
2022/06/10 03:07:46;;;;;;;8.73;5.75;;;;;;;19.85;68.41;93875.38;4161568;28;20083;-53
2022/06/10 03:10:01;;;;;;;6.95;5.63;;;;;;;19.85;68.42;93880.69;4161356;28;20048;-50
2022/06/10 03:12:24;;;;;;;6.38;5.47;;;;;;;19.83;68.62;93880.13;4168465;28;20049;-54
2022/06/10 03:14:48;;;;;;;6.03;4.88;;;;;;;19.85;68.59;93883.34;4169198;28;20092;-52
2022/06/10 03:17:08;;;;;;;;;;;;;;;19.84;68.77;93882.56;4164781;28;20159;-50
2022/06/10 03:19:31;;;;;;;10.60;6.00;;;;;;;19.81;69.17;93884.88;4172568;28;19958;-47
2022/06/10 03:22:02;;;;;;;8.15;5.63;;;;;;;19.78;69.13;93888.00;4159560;28;20115;-51
2022/06/10 03:24:32;;;;;;;7.95;5.63;;;;;;;19.74;69.23;93889.53;4167342;28;20106;-47
2022/06/10 03:27:25;;;;;;;8.25;5.20;;;;;;;19.73;69.42;93890.56;4160354;28;20049;-51
2022/06/10 03:29:30;;;;;;;6.95;5.40;;;;;;;19.75;69.78;93891.94;4159419;28;20119;-48
2022/06/10 03:31:35;;;;;;;8.25;5.70;;;;;;;19.74;69.62;93890.31;4171679;28;20052;-51
2022/06/10 03:34:23;;;;;;;6.07;5.47;;;;;;;19.74;69.64;93892.97;4157693;28;20421;-51
2022/06/10 03:36:26;;;;;;;7.00;5.20;;;;;;;19.70;69.09;93886.50;4173114;28;20497;-48
2022/06/10 03:38:30;;;;;;;7.57;5.53;;;;;;;19.68;69.34;93893.09;4172543;28;20519;-53
2022/06/10 03:40:32;;;;;;;7.78;6.28;;;;;;;19.63;68.76;93889.28;4160716;28;20052;-50
2022/06/10 03:42:34;;;;;;;7.22;6.05;;;;;;;19.50;69.24;93886.88;4159159;28;20103;-52
2022/06/10 03:44:36;;;;;;;9.38;6.55;;;;;;;19.32;69.79;93893.16;4158856;28;20057;-54
2022/06/10 03:46:39;;;;;;;11.05;5.82;;;;;;;19.16;70.85;93893.84;4167109;28;20053;-53
2022/06/10 03:48:44;;;;;;;7.13;5.53;;;;;;;19.01;71.81;93903.09;4174716;28;20793;-52
2022/06/10 03:50:47;;;;;;;6.40;5.63;;;;;;;18.97;71.69;93901.13;4172770;28;20385;-53
2022/06/10 03:52:49;;;;;;;8.23;5.72;;;;;;;18.91;72.45;93896.75;4162506;28;20057;-53
2022/06/10 03:54:51;;;;;;;7.72;5.57;;;;;;;18.87;72.79;93900.91;4175697;28;20049;-53
2022/06/10 03:56:52;;;;;;;7.40;6.22;;;;;;;18.83;72.63;93908.50;4175403;28;20106;-55
2022/06/10 03:58:54;;;;;;;11.43;6.35;;;;;;;18.83;72.96;93908.50;4162815;28;20049;-52
2022/06/10 04:00:58;;;;;;;7.60;6.15;;;;;;;18.87;73.25;93909.66;4159252;28;20148;-54
2022/06/10 04:02:59;;;;;;;;;;;;;;;18.88;73.16;93905.16;4170671;28;20107;-51
2022/06/10 04:05:01;;;;;;;10.20;6.00;;;;;;;18.89;73.29;93906.78;4162493;28;19925;-53
2022/06/10 04:07:03;;;;;;;7.45;6.00;;;;;;;18.92;73.43;93903.66;4168113;28;20143;-49
2022/06/10 04:09:05;;;;;;;9.27;6.07;;;;;;;18.93;73.35;93906.09;4174617;28;20112;-53
2022/06/10 04:11:07;;;;;;;8.05;6.40;;;;;;;18.99;73.28;93909.66;4171889;28;20327;-54
2022/06/10 04:13:10;;;;;;;9.68;6.13;;;;;;;19.10;73.66;93914.19;4159805;28;20069;-54
2022/06/10 04:15:15;;;;;;;9.48;6.50;;;;;;;19.18;73.41;93915.66;4163771;28;20056;-52
2022/06/10 04:17:17;;;;;;;8.88;6.00;;;;;;;19.26;73.08;93911.88;4174888;28;20052;-52
2022/06/10 04:19:19;;;;;;;6.93;5.93;;;;;;;19.30;73.07;93907.72;4167166;28;20041;-48
2022/06/10 04:21:21;;;;;;;9.05;5.88;;;;;;;19.34;72.90;93908.88;4160516;28;20065;-50
2022/06/10 04:23:23;;;;;;;8.90;5.47;;;;;;;19.41;72.71;93904.22;4159269;28;20045;-52
2022/06/10 04:25:25;;;;;;;11.82;5.95;;;;;;;19.46;72.46;93896.34;4164539;28;20620;-49
2022/06/10 04:27:26;;;;;;;8.70;5.68;;;;;;;19.50;72.48;93900.16;4166315;28;20094;-52
2022/06/10 04:29:28;;;;;;;8.65;5.50;;;;;;;19.58;72.37;93905.13;4158955;28;20042;-50
2022/06/10 04:31:30;;;;;;;10.63;5.60;;;;;;;19.61;72.37;93899.34;4170786;28;20413;-51
2022/06/10 04:33:34;;;;;;;6.97;5.72;;;;;;;19.65;72.54;93902.34;4161282;28;20053;-52
2022/06/10 04:35:36;;;;;;;;;;;;;;;19.67;72.41;93902.91;4169734;28;20049;-54
2022/06/10 04:37:38;;;;;;;12.25;6.63;;;;;;;19.74;72.74;93910.78;4166421;28;19929;-47
2022/06/10 04:39:40;;;;;;;11.55;7.22;;;;;;;19.77;72.34;93912.97;4163910;28;20057;-49
2022/06/10 04:41:41;;;;;;;8.07;5.63;;;;;;;19.84;72.14;93909.13;4158832;28;20479;-48
2022/06/10 04:43:43;;;;;;;7.07;5.63;;;;;;;19.89;71.68;93908.41;4159197;28;20115;-50
2022/06/10 04:45:51;;;;;;;8.23;6.55;;;;;;;19.84;71.10;93911.78;4173849;28;20124;-52
2022/06/10 04:47:54;;;;;;;8.30;6.55;;;;;;;19.83;71.12;93906.69;4162188;28;20056;-53
2022/06/10 04:49:59;;;;;;;7.00;6.13;;;;;;;19.81;71.83;93916.75;4171125;28;20053;-50
2022/06/10 04:52:03;;;;;;;7.88;6.57;;;;;;;19.81;71.70;93911.44;4166020;28;20132;-50
2022/06/10 04:54:06;;;;;;;8.48;7.07;;;;;;;19.66;71.33;93917.25;4175948;28;20049;-52
2022/06/10 04:56:07;;;;;;;7.63;6.63;;;;;;;19.52;71.92;93929.97;4165548;28;20053;-51
2022/06/10 04:58:10;;;;;;;7.90;6.65;;;;;;;19.47;72.59;93918.41;4171393;28;20099;-53
2022/06/10 05:00:20;;;;;;;8.82;6.38;;;;;;;19.48;73.06;93923.50;4159881;28;20057;-51
2022/06/10 05:02:22;;;;;;;10.32;6.13;;;;;;;19.30;72.40;93934.25;4173247;28;20052;-52
2022/06/10 05:04:24;;;;;;;11.43;7.07;;;;;;;19.24;72.50;93934.13;4163203;28;20057;-49
2022/06/10 05:06:25;;;;;;;8.07;5.95;;;;;;;19.12;72.57;93930.69;4166649;28;20115;-52
2022/06/10 05:08:27;;;;;;;8.00;6.38;;;;;;;19.04;73.53;93933.69;4177768;28;20040;-52
2022/06/10 05:10:29;;;;;;;9.48;6.45;;;;;;;19.03;73.41;93934.69;4168980;28;20057;-48
2022/06/10 05:12:31;;;;;;;11.05;6.28;;;;;;;18.73;74.03;93932.91;4161602;28;20072;-48
2022/06/10 05:14:34;;;;;;;8.77;6.20;;;;;;;18.51;75.06;93935.28;4160920;28;20123;-52
2022/06/10 05:16:36;;;;;;;10.18;5.75;;;;;;;18.26;76.01;93942.56;4161365;28;20325;-50
2022/06/10 05:18:38;;;;;;;8.60;6.25;;;;;;;18.08;76.61;93938.94;4168194;28;20391;-49
2022/06/10 05:20:41;;;;;;;7.20;5.38;;;;;;;17.96;77.06;93938.88;4177673;28;20045;-50
2022/06/10 05:22:43;;;;;;;8.93;5.57;;;;;;;17.89;77.71;93946.09;4178117;28;20052;-51
2022/06/10 05:24:45;;;;;;;7.38;5.95;;;;;;;17.89;77.64;93942.63;4162051;28;20065;-52
2022/06/10 05:26:46;;;;;;;9.48;7.00;;;;;;;17.87;78.04;93950.81;4163067;28;20468;-50
2022/06/10 05:28:51;;;;;;;7.43;5.50;;;;;;;17.95;77.48;93950.50;4167971;28;20041;-49
2022/06/10 05:30:53;;;;;;;8.73;5.97;;;;;;;18.00;77.30;93941.88;4168192;28;20084;-50
2022/06/10 05:32:55;;;;;;;12.07;6.32;;;;;;;18.18;77.31;93943.72;4163539;28;20058;-51
2022/06/10 05:34:57;;;;;;;10.18;6.43;;;;;;;18.28;75.95;93938.66;4167284;28;20060;-50
2022/06/10 05:36:59;;;;;;;8.82;6.03;;;;;;;18.35;76.08;93941.25;4162908;28;20102;-52
2022/06/10 05:39:01;;;;;;;9.73;6.93;;;;;;;18.42;76.37;93942.75;4171754;28;20455;-53
2022/06/10 05:42:04;;;;;;;10.10;7.15;;;;;;;18.57;76.49;93944.97;4160296;28;20057;-51
2022/06/10 05:43:24;;;;;;;9.57;6.32;;;;;;;18.75;75.99;93951.25;4163165;28;20115;-49
2022/06/10 05:45:27;;;;;;;9.80;6.75;;;;;;;18.85;75.48;93954.19;4160485;28;20052;-49
2022/06/10 05:47:32;;;;;;;9.55;7.25;;;;;;;18.89;74.78;93946.59;4163146;28;20057;-49
2022/06/10 05:49:40;;;;;;;10.45;7.32;;;;;;;18.89;74.78;93944.75;4160571;28;20041;-54
2022/06/10 05:51:42;;;;;;;9.65;7.53;;;;;;;18.76;74.98;93943.06;4163067;28;20111;-52
2022/06/10 05:53:44;;;;;;;9.85;7.38;;;;;;;18.62;75.85;93944.31;4174454;28;20052;-54
2022/06/10 05:55:45;;;;;;;9.27;7.70;;;;;;;18.73;76.06;93946.16;4160200;28;20057;-51
2022/06/10 05:57:48;;;;;;;8.07;7.18;;;;;;;18.86;75.90;93944.38;4167693;28;20053;-57
2022/06/10 05:59:52;;;;;;;11.00;7.60;;;;;;;19.00;75.03;93949.25;4165816;28;20468;-55
2022/06/10 06:01:54;;;;;;;7.35;6.60;;;;;;;19.14;74.30;93952.47;4169369;28;20136;-53
2022/06/10 06:03:56;;;;;;;9.35;6.85;;;;;;;19.20;73.89;93950.75;4161808;28;20531;-53
2022/06/10 06:05:58;;;;;;;9.00;6.68;;;;;;;19.27;73.38;93958.59;4165059;28;20583;-55
2022/06/10 06:07:59;;;;;;;10.20;7.60;;;;;;;19.21;73.71;93952.38;4166572;28;20126;-52
2022/06/10 06:10:01;;;;;;;10.63;6.53;;;;;;;18.90;74.23;93959.63;4160971;28;20490;-53
2022/06/10 06:12:03;;;;;;;9.70;7.35;;;;;;;18.80;75.40;93956.72;4160606;28;20496;-54
2022/06/10 06:14:05;;;;;;;19.13;10.88;;;;;;;18.84;76.08;93952.56;4161632;28;20061;-51
2022/06/10 06:16:09;;;;;;;28.05;13.23;;;;;;;18.79;76.10;93955.09;4172810;28;20064;-54
2022/06/10 06:18:11;;;;;;;18.38;11.40;;;;;;;18.65;76.85;93954.47;4174959;28;20103;-51
2022/06/10 06:20:14;;;;;;;19.42;10.68;;;;;;;18.66;77.41;93955.28;4165329;28;20054;-50
2022/06/10 06:22:16;;;;;;;19.75;10.90;;;;;;;18.79;76.98;93961.22;4168374;28;20479;-49
2022/06/10 06:24:18;;;;;;;11.57;8.52;;;;;;;18.81;76.66;93964.44;4166554;28;20106;-51
2022/06/10 06:26:19;;;;;;;10.07;7.75;;;;;;;18.70;75.95;93964.41;4172243;28;20134;-53
2022/06/10 06:28:21;;;;;;;9.95;7.55;;;;;;;18.65;75.89;93967.75;4163234;28;20053;-50
2022/06/10 06:30:31;;;;;;;9.48;7.82;;;;;;;18.76;76.57;93976.75;4170603;28;20049;-52
2022/06/10 06:32:33;;;;;;;10.10;8.20;;;;;;;18.90;76.19;93978.19;4161217;28;20056;-56
2022/06/10 06:34:38;;;;;;;9.15;7.38;;;;;;;18.96;75.92;93969.31;4160994;28;20255;-50
2022/06/10 06:36:44;;;;;;;8.95;7.93;;;;;;;19.02;75.37;93972.91;4159781;28;20046;-49
2022/06/10 06:38:47;;;;;;;11.27;8.35;;;;;;;19.11;74.73;93976.84;4160212;28;20064;-50
2022/06/10 06:40:48;;;;;;;10.23;8.23;;;;;;;19.12;74.89;93969.69;4164525;28;20615;-51
2022/06/10 06:42:50;;;;;;;13.80;7.78;;;;;;;19.02;75.31;93972.91;4176080;28;20494;-53
2022/06/10 06:44:52;;;;;;;9.32;7.25;;;;;;;18.94;75.66;93975.91;4157599;28;20053;-49
2022/06/10 06:47:13;;;;;;;11.43;7.32;;;;;;;18.96;75.90;93979.13;4173430;28;20087;-49
2022/06/10 06:49:22;;;;;;;11.75;8.05;;;;;;;19.06;74.95;93976.72;4159952;28;20060;-53
2022/06/10 06:51:24;;;;;;;11.52;7.57;;;;;;;18.97;74.54;93972.78;4167841;28;20513;-52
2022/06/10 06:53:25;;;;;;;11.18;6.88;;;;;;;19.00;75.24;93972.34;4176747;28;20102;-50
2022/06/10 06:55:27;;;;;;;9.30;8.00;;;;;;;19.13;75.43;93982.72;4176280;28;20133;-50
2022/06/10 06:57:29;;;;;;;9.55;7.40;;;;;;;19.32;75.28;93980.00;4175043;28;20056;-51
2022/06/10 06:59:32;;;;;;;10.57;8.35;;;;;;;19.51;74.86;93973.53;4165621;28;20108;-49
2022/06/10 07:01:34;;;;;;;11.95;9.52;;;;;;;19.64;74.30;93977.78;4173886;28;20071;-51
2022/06/10 07:03:36;;;;;;;16.27;11.57;;;;;;;19.77;73.76;93976.75;4175957;28;20090;-48
2022/06/10 07:05:38;;;;;;;42.20;31.20;;;;;;;19.92;73.29;93969.09;4176656;28;20097;-53
2022/06/10 07:07:44;;;;;;;13.25;10.27;;;;;;;20.05;72.64;93965.38;4165000;28;20049;-46
2022/06/10 07:09:45;;;;;;;9.90;7.68;;;;;;;20.15;71.78;93970.88;4170939;28;20123;-51
2022/06/10 07:11:47;;;;;;;7.63;6.82;;;;;;;20.25;71.37;93963.09;4159567;28;20195;-53
2022/06/10 07:13:49;;;;;;;8.77;7.07;;;;;;;20.38;70.95;93966.53;4169111;28;20493;-52
2022/06/10 07:15:51;;;;;;;8.45;7.47;;;;;;;20.48;70.64;93965.91;4172933;28;20136;-50
2022/06/10 07:17:53;;;;;;;10.90;7.88;;;;;;;20.52;70.13;93977.69;4161341;28;20113;-54
2022/06/10 07:19:58;;;;;;;8.77;7.88;;;;;;;20.51;70.00;93970.75;4167208;28;20138;-49
2022/06/10 07:22:00;;;;;;;9.48;7.88;;;;;;;20.54;70.04;93971.09;4165140;28;20140;-51
2022/06/10 07:24:02;;;;;;;9.27;7.43;;;;;;;20.57;70.32;93975.97;4167482;28;20107;-53
2022/06/10 07:26:03;;;;;;;7.93;6.70;;;;;;;20.56;69.47;93968.19;4158693;28;20459;-49
2022/06/10 07:28:07;;;;;;;10.30;6.80;;;;;;;20.56;69.76;93973.50;4159331;28;20049;-49
2022/06/10 07:30:12;;;;;;;9.68;6.97;;;;;;;20.61;69.68;93971.78;4171267;28;20099;-51
2022/06/10 07:32:14;;;;;;;7.80;6.53;;;;;;;20.68;69.57;93971.63;4142380;28;20050;-50
2022/06/10 07:34:16;;;;;;;8.50;6.88;;;;;;;20.79;69.56;93978.75;4172287;28;20056;-50
2022/06/10 07:36:18;;;;;;;8.38;7.38;;;;;;;20.73;68.89;93985.00;4164019;28;20205;-53
2022/06/10 07:38:19;;;;;;;7.70;6.70;;;;;;;20.73;68.94;93984.22;4173426;28;20110;-50
2022/06/10 07:43:06;;;;;;;14.30;11.45;;;;;;;20.81;68.57;93978.50;4159101;28;20136;-51
2022/06/10 07:45:09;;;;;;;11.52;7.13;;;;;;;20.62;67.70;93978.69;4162147;28;20053;-54
2022/06/10 07:47:14;;;;;;;8.73;7.32;;;;;;;20.46;68.26;93980.25;4158727;28;20061;-50
2022/06/10 07:49:16;;;;;;;9.63;7.63;;;;;;;20.44;68.88;93974.38;4162490;28;20549;-51
2022/06/10 07:51:18;;;;;;;10.90;7.10;;;;;;;20.52;69.23;93977.69;4159649;28;20049;-52
2022/06/10 07:53:20;;;;;;;10.82;8.68;;;;;;;20.68;69.27;93978.81;4159248;28;20049;-53
2022/06/10 07:55:22;;;;;;;10.35;8.30;;;;;;;20.82;69.04;93988.91;4159263;28;20053;-53
2022/06/10 07:57:24;;;;;;;13.52;8.00;;;;;;;20.84;68.33;93986.84;4173499;28;20111;-53
2022/06/10 07:59:26;;;;;;;9.30;7.90;;;;;;;20.81;68.08;93986.50;4166305;28;20041;-55
2022/06/10 08:01:28;;;;;;;10.95;7.97;;;;;;;20.85;68.44;93984.97;4165177;28;20106;-54
2022/06/10 08:03:31;;;;;;;11.40;8.85;;;;;;;20.64;68.22;93981.13;4166473;28;20049;-52
2022/06/10 08:05:33;;;;;;;11.57;8.30;;;;;;;20.54;69.13;93987.06;4160549;28;20064;-53
2022/06/10 08:07:37;;;;;;;11.35;7.90;;;;;;;20.16;69.33;93977.03;4167661;28;20112;-52
2022/06/10 08:09:39;;;;;;;11.02;7.53;;;;;;;19.80;70.74;93987.72;4163459;28;20186;-52
2022/06/10 08:11:41;;;;;;;9.95;8.95;;;;;;;19.82;70.90;93988.28;4163560;28;20056;-54
2022/06/10 08:13:43;;;;;;;9.82;7.88;;;;;;;20.05;71.63;93990.09;4175805;28;20458;-54
2022/06/10 08:15:45;;;;;;;10.18;8.13;;;;;;;20.25;70.22;93992.34;4173374;28;20168;-51
2022/06/10 08:17:48;;;;;;;10.70;7.60;;;;;;;20.21;68.56;94003.69;4175944;28;20148;-54
2022/06/10 08:19:50;;;;;;;11.55;7.50;;;;;;;20.05;69.06;94002.59;4158187;28;20556;-52
2022/06/10 08:24:12;;;;;;;8.32;7.53;;;;;;;20.32;68.90;93999.38;4159421;28;20664;-50
2022/06/10 08:26:15;;;;;;;9.60;7.57;;;;;;;20.51;68.74;93994.69;4171805;28;20045;-51
2022/06/10 08:28:17;;;;;;;13.10;7.65;;;;;;;20.46;67.67;93998.88;4160734;28;20111;-48
2022/06/10 08:30:18;;;;;;;15.20;7.72;;;;;;;20.51;67.57;94000.81;4169203;28;20107;-50
2022/06/10 08:32:21;;;;;;;10.10;6.63;;;;;;;20.64;67.08;93994.44;4159013;28;20053;-52
2022/06/10 08:34:23;;;;;;;13.25;6.28;;;;;;;20.61;66.98;94002.91;4169299;28;20442;-51
2022/06/10 08:36:25;;;;;;;10.48;6.20;;;;;;;20.77;67.40;94006.66;4162405;28;20554;-52
2022/06/10 08:38:26;;;;;;;7.80;6.25;;;;;;;20.98;66.93;94013.94;4172317;28;20048;-51
2022/06/10 08:40:55;;;;;;;9.38;6.13;;;;;;;21.15;65.02;94011.31;4161350;28;20102;-58
2022/06/10 08:43:03;;;;;;;8.57;6.40;;;;;;;21.28;65.20;94010.97;4165959;28;20056;-53
2022/06/10 08:45:35;;;;;;;9.38;6.82;;;;;;;21.41;65.14;94012.53;4160937;28;20112;-53
2022/06/10 08:47:43;;;;;;;9.70;7.57;;;;;;;21.33;65.11;94020.09;4159031;28;20115;-51
2022/06/10 08:50:26;;;;;;;10.52;7.07;;;;;;;21.36;64.35;94020.44;4158662;28;20045;-52
2022/06/10 08:52:35;;;;;;;6.97;4.68;;;;;;;21.29;61.97;94019.75;4169612;28;20107;-49
2022/06/10 08:54:49;;;;;;;6.90;5.10;;;;;;;21.26;62.65;94021.06;4167309;28;20057;-52
2022/06/10 08:56:53;;;;;;;5.32;4.20;;;;;;;21.26;62.63;94017.59;4159316;28;20155;-51
2022/06/10 08:59:22;;;;;;;5.63;4.15;;;;;;;21.39;61.87;94017.28;4166867;28;20055;-54
2022/06/10 09:01:24;;;;;;;7.57;5.88;;;;;;;21.23;61.02;94016.22;4161123;28;20111;-50
2022/06/10 09:03:49;;;;;;;5.72;4.47;;;;;;;21.12;62.07;94017.09;4167772;28;20053;-51
2022/06/10 09:05:53;;;;;;;9.73;5.38;;;;;;;20.77;62.31;94018.09;4157599;28;20091;-49
2022/06/10 09:08:02;;;;;;;6.55;5.65;;;;;;;20.91;62.72;94034.59;4171834;28;20063;-53
2022/06/10 09:10:07;;;;;;;6.65;5.22;;;;;;;21.13;63.55;94024.03;4165816;28;20045;-55
2022/06/10 09:12:14;;;;;;;10.57;6.40;;;;;;;21.07;63.04;94030.34;4158520;28;20127;-51
2022/06/10 09:14:24;;;;;;;7.43;5.90;;;;;;;20.77;63.34;94028.75;4157552;28;20556;-53
2022/06/10 09:16:35;;;;;;;9.68;6.03;;;;;;;20.61;63.45;94021.53;4160013;28;20049;-49
2022/06/10 09:18:40;;;;;;;13.23;6.20;;;;;;;20.65;63.78;94028.00;4173811;28;20076;-51
2022/06/10 09:20:53;;;;;;;8.98;5.88;;;;;;;20.88;63.61;94026.28;4159265;28;20061;-54
2022/06/10 09:23:12;;;;;;;11.15;6.28;;;;;;;21.03;63.11;94024.66;4158164;28;20064;-54
2022/06/10 09:25:26;;;;;;;9.30;6.40;;;;;;;21.22;63.27;94019.94;4159672;28;20053;-50
2022/06/10 09:27:34;;;;;;;9.95;6.93;;;;;;;21.37;62.04;94018.56;4173108;28;20144;-50
2022/06/10 09:29:38;;;;;;;10.50;6.15;;;;;;;21.55;61.83;94015.66;4163499;28;20099;-50
2022/06/10 09:31:41;;;;;;;9.32;5.95;;;;;;;21.65;60.80;94012.34;4158944;28;20053;-51
2022/06/10 09:33:55;;;;;;;7.38;6.00;;;;;;;21.72;61.00;94015.66;4166776;28;20761;-52
2022/06/10 09:36:06;;;;;;;8.25;6.40;;;;;;;21.62;60.67;94023.53;4176879;28;20191;-51
2022/06/10 09:38:30;;;;;;;8.18;6.32;;;;;;;21.13;61.66;94021.38;4160479;28;20049;-53
2022/06/10 09:40:45;;;;;;;13.50;7.30;;;;;;;20.74;63.34;94023.91;4161102;28;20122;-54
2022/06/10 09:43:17;;;;;;;9.40;7.40;;;;;;;20.64;63.35;94016.53;4167437;28;20056;-50
2022/06/10 09:46:00;;;;;;;9.27;6.70;;;;;;;20.80;63.87;94027.44;4176519;28;20060;-54
2022/06/10 09:48:05;;;;;;;9.25;6.20;;;;;;;20.70;64.36;94033.41;4160203;28;20061;-54
2022/06/10 09:50:13;;;;;;;9.75;7.30;;;;;;;20.57;65.39;94036.31;4161296;28;20045;-54
2022/06/10 09:52:27;;;;;;;9.55;5.82;;;;;;;20.55;65.75;94043.75;4173682;28;20131;-50
2022/06/10 09:54:39;;;;;;;7.85;5.75;;;;;;;20.54;66.96;94047.44;4170679;28;20049;-50
2022/06/10 09:56:47;;;;;;;6.95;5.72;;;;;;;20.53;66.93;94043.16;4166164;28;20053;-53
2022/06/10 09:59:07;;;;;;;8.02;6.45;;;;;;;20.56;68.03;94053.31;4161462;28;20057;-55
2022/06/10 10:01:27;;;;;;;8.10;7.30;;;;;;;20.60;68.73;94062.47;4160406;28;20045;-52
2022/06/10 10:03:37;;;;;;;9.95;7.10;;;;;;;20.60;69.08;94070.47;4177972;28;20045;-54
2022/06/10 10:06:14;;;;;;;7.80;7.00;;;;;;;20.60;69.59;94073.13;4176902;28;20425;-53
2022/06/10 10:08:41;;;;;;;10.68;7.10;;;;;;;20.53;70.04;94075.09;4180135;28;20056;-52